sensor_id;sensor_type;location;lat;lon;timestamp;pressure;altitude;pressure_sealevel;temperature;humidity
72061;BME280;59925;52.136;5.420;2023-05-23T00:00:58;102036.13;;;15.08;79.81
72061;BME280;59925;52.136;5.420;2023-05-23T00:03:25;102047.22;;;15.06;79.71
72061;BME280;59925;52.136;5.420;2023-05-23T00:05:52;102034.78;;;15.00;79.86
72061;BME280;59925;52.136;5.420;2023-05-23T00:08:19;102039.63;;;14.98;80.12
72061;BME280;59925;52.136;5.420;2023-05-23T00:10:45;102033.69;;;14.91;80.33
72061;BME280;59925;52.136;5.420;2023-05-23T00:13:12;102039.38;;;14.84;80.52
72061;BME280;59925;52.136;5.420;2023-05-23T00:15:40;102043.41;;;14.86;80.66
72061;BME280;59925;52.136;5.420;2023-05-23T00:18:09;102041.25;;;14.89;80.62
72061;BME280;59925;52.136;5.420;2023-05-23T00:20:40;102043.94;;;14.83;80.86
72061;BME280;59925;52.136;5.420;2023-05-23T00:23:08;102045.56;;;14.84;80.86
72061;BME280;59925;52.136;5.420;2023-05-23T00:25:36;102043.94;;;14.83;80.77
72061;BME280;59925;52.136;5.420;2023-05-23T00:28:03;102056.06;;;14.76;81.10
72061;BME280;59925;52.136;5.420;2023-05-23T00:30:32;102056.34;;;14.74;81.21
72061;BME280;59925;52.136;5.420;2023-05-23T00:32:59;102053.63;;;14.69;81.28
72061;BME280;59925;52.136;5.420;2023-05-23T00:35:26;102061.13;;;14.56;81.62
72061;BME280;59925;52.136;5.420;2023-05-23T00:37:53;102062.75;;;14.47;82.11
72061;BME280;59925;52.136;5.420;2023-05-23T00:40:21;102061.91;;;14.41;82.39
72061;BME280;59925;52.136;5.420;2023-05-23T00:42:48;102065.41;;;14.37;82.70
72061;BME280;59925;52.136;5.420;2023-05-23T00:45:15;102069.19;;;14.36;82.93
72061;BME280;59925;52.136;5.420;2023-05-23T00:47:43;102071.34;;;14.34;83.30
72061;BME280;59925;52.136;5.420;2023-05-23T00:50:11;102069.16;;;14.31;83.27
72061;BME280;59925;52.136;5.420;2023-05-23T00:52:40;102068.38;;;14.30;83.38
72061;BME280;59925;52.136;5.420;2023-05-23T00:55:08;102072.91;;;14.19;83.71
72061;BME280;59925;52.136;5.420;2023-05-23T00:57:36;102080.72;;;14.16;83.89
72061;BME280;59925;52.136;5.420;2023-05-23T01:00:07;102078.53;;;14.13;84.05
72061;BME280;59925;52.136;5.420;2023-05-23T01:02:46;102074.75;;;14.08;84.19
72061;BME280;59925;52.136;5.420;2023-05-23T01:05:14;102078.81;;;14.11;84.11
72061;BME280;59925;52.136;5.420;2023-05-23T01:07:46;102071.25;;;14.08;84.15
72061;BME280;59925;52.136;5.420;2023-05-23T01:10:14;102080.41;;;14.07;84.46
72061;BME280;59925;52.136;5.420;2023-05-23T01:15:20;102069.06;;;14.05;84.60
72061;BME280;59925;52.136;5.420;2023-05-23T01:20:27;102074.50;;;14.10;84.73
72061;BME280;59925;52.136;5.420;2023-05-23T01:27:56;102074.22;;;14.06;84.49
72061;BME280;59925;52.136;5.420;2023-05-23T01:30:29;102078.25;;;14.09;84.80
72061;BME280;59925;52.136;5.420;2023-05-23T01:32:57;102075.56;;;14.09;84.35
72061;BME280;59925;52.136;5.420;2023-05-23T01:35:25;102071.25;;;14.08;84.89
72061;BME280;59925;52.136;5.420;2023-05-23T01:37:53;102069.63;;;14.07;84.67
72061;BME280;59925;52.136;5.420;2023-05-23T01:40:21;102070.44;;;14.07;84.85
72061;BME280;59925;52.136;5.420;2023-05-23T01:42:48;102072.59;;;14.10;84.92
72061;BME280;59925;52.136;5.420;2023-05-23T01:45:16;102077.97;;;14.10;84.90
72061;BME280;59925;52.136;5.420;2023-05-23T01:47:43;102073.66;;;14.09;84.76
72061;BME280;59925;52.136;5.420;2023-05-23T01:50:11;102072.59;;;14.10;84.91
72061;BME280;59925;52.136;5.420;2023-05-23T01:52:39;102073.66;;;14.09;84.84
72061;BME280;59925;52.136;5.420;2023-05-23T01:55:07;102079.34;;;14.13;84.53
72061;BME280;59925;52.136;5.420;2023-05-23T01:57:37;102080.72;;;14.16;84.71
72061;BME280;59925;52.136;5.420;2023-05-23T02:00:05;102081.50;;;14.16;84.47
72061;BME280;59925;52.136;5.420;2023-05-23T02:02:33;102081.50;;;14.11;84.40
72061;BME280;59925;52.136;5.420;2023-05-23T02:04:59;102087.94;;;14.05;84.43
72061;BME280;59925;52.136;5.420;2023-05-23T02:07:26;102089.84;;;14.04;84.50
72061;BME280;59925;52.136;5.420;2023-05-23T02:09:54;102092.25;;;14.01;84.39
72061;BME280;59925;52.136;5.420;2023-05-23T02:12:21;102097.88;;;13.99;84.49
72061;BME280;59925;52.136;5.420;2023-05-23T02:14:48;102103.28;;;13.99;84.24
72061;BME280;59925;52.136;5.420;2023-05-23T02:17:17;102099.78;;;13.99;84.38
72061;BME280;59925;52.136;5.420;2023-05-23T02:19:45;102097.91;;;14.04;84.22
72061;BME280;59925;52.136;5.420;2023-05-23T02:22:11;102101.16;;;14.06;83.92
72061;BME280;59925;52.136;5.420;2023-05-23T02:24:39;102104.41;;;14.08;83.89
72061;BME280;59925;52.136;5.420;2023-05-23T02:27:06;102098.19;;;14.08;83.81
72061;BME280;59925;52.136;5.420;2023-05-23T02:29:32;102116.28;;;14.07;83.76
72061;BME280;59925;52.136;5.420;2023-05-23T02:31:59;102108.16;;;14.02;83.81
72061;BME280;59925;52.136;5.420;2023-05-23T02:34:25;102112.19;;;14.00;83.96
72061;BME280;59925;52.136;5.420;2023-05-23T02:36:52;102115.44;;;14.02;84.00
72061;BME280;59925;52.136;5.420;2023-05-23T02:39:18;102105.44;;;14.02;84.12
72061;BME280;59925;52.136;5.420;2023-05-23T02:41:45;102104.66;;;14.02;84.17
72061;BME280;59925;52.136;5.420;2023-05-23T02:44:11;102108.41;;;14.01;84.07
72061;BME280;59925;52.136;5.420;2023-05-23T02:46:38;102118.66;;;14.04;83.60
72061;BME280;59925;52.136;5.420;2023-05-23T02:49:04;102113.53;;;14.02;83.54
72061;BME280;59925;52.136;5.420;2023-05-23T02:51:31;102120.56;;;14.03;83.49
72061;BME280;59925;52.136;5.420;2023-05-23T02:53:58;102119.22;;;14.06;83.48
72061;BME280;59925;52.136;5.420;2023-05-23T02:56:24;102119.78;;;14.08;83.59
72061;BME280;59925;52.136;5.420;2023-05-23T02:58:52;102123.53;;;14.07;83.14
72061;BME280;59925;52.136;5.420;2023-05-23T03:01:19;102120.84;;;14.07;83.27
72061;BME280;59925;52.136;5.420;2023-05-23T03:03:45;102125.16;;;14.08;83.22
72061;BME280;59925;52.136;5.420;2023-05-23T03:06:12;102126.00;;;14.08;83.13
72061;BME280;59925;52.136;5.420;2023-05-23T03:08:40;102124.88;;;14.04;83.26
72061;BME280;59925;52.136;5.420;2023-05-23T03:11:07;102122.69;;;14.01;83.18
72061;BME280;59925;52.136;5.420;2023-05-23T03:13:34;102115.94;;;13.99;83.39
72061;BME280;59925;52.136;5.420;2023-05-23T03:16:01;102117.59;;;14.00;83.10
72061;BME280;59925;52.136;5.420;2023-05-23T03:18:28;102130.50;;;13.98;83.07
72061;BME280;59925;52.136;5.420;2023-05-23T03:20:54;102121.56;;;13.92;83.11
72061;BME280;59925;52.136;5.420;2023-05-23T03:23:20;102120.22;;;13.89;83.07
72061;BME280;59925;52.136;5.420;2023-05-23T03:25:47;102129.38;;;13.88;83.31
72061;BME280;59925;52.136;5.420;2023-05-23T03:28:14;102131.53;;;13.86;83.34
72061;BME280;59925;52.136;5.420;2023-05-23T03:30:40;102120.44;;;13.83;83.03
72061;BME280;59925;52.136;5.420;2023-05-23T03:33:07;102139.84;;;13.79;83.10
72061;BME280;59925;52.136;5.420;2023-05-23T03:35:33;102132.00;;;13.78;83.17
72061;BME280;59925;52.136;5.420;2023-05-23T03:38:00;102132.81;;;13.78;83.25
72061;BME280;59925;52.136;5.420;2023-05-23T03:40:26;102133.63;;;13.79;83.21
72061;BME280;59925;52.136;5.420;2023-05-23T03:43:07;102139.28;;;13.77;83.13
72061;BME280;59925;52.136;5.420;2023-05-23T03:45:34;102139.84;;;13.79;83.00
72061;BME280;59925;52.136;5.420;2023-05-23T03:48:00;102138.19;;;13.78;82.95
72061;BME280;59925;52.136;5.420;2023-05-23T03:50:27;102145.72;;;13.76;82.95
72061;BME280;59925;52.136;5.420;2023-05-23T03:52:53;102140.00;;;13.68;83.16
72061;BME280;59925;52.136;5.420;2023-05-23T03:55:20;102147.81;;;13.64;83.02
72061;BME280;59925;52.136;5.420;2023-05-23T03:57:48;102155.31;;;13.62;82.86
72061;BME280;59925;52.136;5.420;2023-05-23T04:00:14;102154.22;;;13.58;82.85
72061;BME280;59925;52.136;5.420;2023-05-23T04:02:41;102156.03;;;13.52;82.87
72061;BME280;59925;52.136;5.420;2023-05-23T04:05:09;102164.41;;;13.51;82.92
72061;BME280;59925;52.136;5.420;2023-05-23T04:07:35;102155.75;;;13.48;83.11
72061;BME280;59925;52.136;5.420;2023-05-23T04:10:02;102164.09;;;13.47;83.12
72061;BME280;59925;52.136;5.420;2023-05-23T04:12:29;102166.53;;;13.48;83.25
72061;BME280;59925;52.136;5.420;2023-05-23T04:14:56;102164.91;;;13.47;83.47
72061;BME280;59925;52.136;5.420;2023-05-23T04:17:23;102175.69;;;13.47;83.39
72061;BME280;59925;52.136;5.420;2023-05-23T04:19:51;102180.28;;;13.47;83.41
72061;BME280;59925;52.136;5.420;2023-05-23T04:22:17;102175.13;;;13.45;83.33
72061;BME280;59925;52.136;5.420;2023-05-23T04:24:44;102176.44;;;13.43;83.48
72061;BME280;59925;52.136;5.420;2023-05-23T04:27:10;102181.28;;;13.41;83.33
72061;BME280;59925;52.136;5.420;2023-05-23T04:29:38;102190.19;;;13.41;83.42
72061;BME280;59925;52.136;5.420;2023-05-23T04:32:05;102190.09;;;13.36;83.24
72061;BME280;59925;52.136;5.420;2023-05-23T04:34:33;102189.25;;;13.30;83.34
72061;BME280;59925;52.136;5.420;2023-05-23T04:37:00;102196.81;;;13.33;83.23
72061;BME280;59925;52.136;5.420;2023-05-23T04:39:28;102199.19;;;13.30;83.03
72061;BME280;59925;52.136;5.420;2023-05-23T04:41:55;102201.88;;;13.30;83.02
72061;BME280;59925;52.136;5.420;2023-05-23T04:44:22;102195.19;;;13.32;82.90
72061;BME280;59925;52.136;5.420;2023-05-23T04:46:48;102199.19;;;13.30;82.83
72061;BME280;59925;52.136;5.420;2023-05-23T04:49:15;102204.34;;;13.31;82.38
72061;BME280;59925;52.136;5.420;2023-05-23T04:51:42;102191.09;;;13.30;82.59
72061;BME280;59925;52.136;5.420;2023-05-23T04:54:09;102202.41;;;13.27;82.77
72061;BME280;59925;52.136;5.420;2023-05-23T04:56:35;102214.25;;;13.26;82.69
72061;BME280;59925;52.136;5.420;2023-05-23T04:59:02;102213.69;;;13.24;82.52
72061;BME280;59925;52.136;5.420;2023-05-23T05:01:28;102223.31;;;13.19;82.64
72061;BME280;59925;52.136;5.420;2023-05-23T05:03:55;102223.59;;;13.18;82.49
72061;BME280;59925;52.136;5.420;2023-05-23T05:06:22;102226.22;;;13.13;82.21
72061;BME280;59925;52.136;5.420;2023-05-23T05:08:48;102238.00;;;13.07;81.95
72061;BME280;59925;52.136;5.420;2023-05-23T05:11:15;102229.84;;;13.01;81.78
72061;BME280;59925;52.136;5.420;2023-05-23T05:13:41;102242.50;;;13.01;81.71
72061;BME280;59925;52.136;5.420;2023-05-23T05:16:08;102247.03;;;12.95;81.53
72061;BME280;59925;52.136;5.420;2023-05-23T05:18:34;102247.56;;;12.97;81.47
72061;BME280;59925;52.136;5.420;2023-05-23T05:21:01;102254.28;;;12.95;81.12
72061;BME280;59925;52.136;5.420;2023-05-23T05:23:30;102253.47;;;12.94;80.79
72061;BME280;59925;52.136;5.420;2023-05-23T05:25:56;102250.22;;;12.92;80.19
72061;BME280;59925;52.136;5.420;2023-05-23T05:28:23;102267.44;;;12.91;80.28
72061;BME280;59925;52.136;5.420;2023-05-23T05:30:49;102260.16;;;12.92;79.81
72061;BME280;59925;52.136;5.420;2023-05-23T05:33:20;102275.50;;;12.91;79.38
72061;BME280;59925;52.136;5.420;2023-05-23T05:35:49;102276.00;;;12.88;78.74
72061;BME280;59925;52.136;5.420;2023-05-23T05:38:18;102276.47;;;12.85;78.78
72061;BME280;59925;52.136;5.420;2023-05-23T05:40:45;102279.81;;;12.92;78.57
72061;BME280;59925;52.136;5.420;2023-05-23T05:43:11;102277.13;;;12.92;78.38
72061;BME280;59925;52.136;5.420;2023-05-23T05:45:38;102288.50;;;12.99;78.17
72061;BME280;59925;52.136;5.420;2023-05-23T05:48:05;102281.44;;;12.93;77.53
72061;BME280;59925;52.136;5.420;2023-05-23T05:50:31;102285.44;;;12.91;77.45
72061;BME280;59925;52.136;5.420;2023-05-23T05:52:58;102301.16;;;12.99;77.26
72061;BME280;59925;52.136;5.420;2023-05-23T05:55:24;102293.22;;;13.09;77.37
72061;BME280;59925;52.136;5.420;2023-05-23T05:57:51;102301.03;;;13.11;77.02
72061;BME280;59925;52.136;5.420;2023-05-23T06:00:17;102302.84;;;13.05;76.43
72061;BME280;59925;52.136;5.420;2023-05-23T06:02:45;102302.03;;;13.05;76.07
72061;BME280;59925;52.136;5.420;2023-05-23T06:05:17;102309.56;;;13.02;75.98
72061;BME280;59925;52.136;5.420;2023-05-23T06:07:43;102317.38;;;13.04;75.95
72061;BME280;59925;52.136;5.420;2023-05-23T06:10:10;102309.63;;;13.08;75.70
72061;BME280;59925;52.136;5.420;2023-05-23T06:12:40;102321.69;;;13.05;74.81
72061;BME280;59925;52.136;5.420;2023-05-23T06:15:07;102316.84;;;13.02;74.74
72061;BME280;59925;52.136;5.420;2023-05-23T06:17:34;102321.97;;;13.03;74.69
72061;BME280;59925;52.136;5.420;2023-05-23T06:20:01;102322.56;;;13.11;74.74
72061;BME280;59925;52.136;5.420;2023-05-23T06:22:28;102327.16;;;13.10;74.61
72061;BME280;59925;52.136;5.420;2023-05-23T06:24:55;102327.94;;;13.11;74.68
72061;BME280;59925;52.136;5.420;2023-05-23T06:27:21;102322.66;;;13.16;74.63
72061;BME280;59925;52.136;5.420;2023-05-23T06:29:48;102321.59;;;13.17;74.73
72061;BME280;59925;52.136;5.420;2023-05-23T06:32:14;102314.06;;;13.19;74.97
72061;BME280;59925;52.136;5.420;2023-05-23T06:34:41;102328.91;;;13.22;74.73
72061;BME280;59925;52.136;5.420;2023-05-23T06:37:07;102324.84;;;13.19;74.71
72061;BME280;59925;52.136;5.420;2023-05-23T06:39:34;102326.97;;;13.17;75.01
72061;BME280;59925;52.136;5.420;2023-05-23T06:42:01;102324.00;;;13.18;74.83
72061;BME280;59925;52.136;5.420;2023-05-23T06:44:27;102328.59;;;13.18;74.91
72061;BME280;59925;52.136;5.420;2023-05-23T06:46:54;102323.22;;;13.18;74.89
72061;BME280;59925;52.136;5.420;2023-05-23T06:49:24;102325.91;;;13.18;75.01
72061;BME280;59925;52.136;5.420;2023-05-23T06:51:51;102334.47;;;13.15;75.15
72061;BME280;59925;52.136;5.420;2023-05-23T06:54:18;102323.47;;;13.16;75.53
72061;BME280;59925;52.136;5.420;2023-05-23T06:56:44;102336.38;;;13.14;75.56
72061;BME280;59925;52.136;5.420;2023-05-23T06:59:11;102339.81;;;13.10;75.72
72061;BME280;59925;52.136;5.420;2023-05-23T07:01:38;102338.97;;;13.09;76.09
72061;BME280;59925;52.136;5.420;2023-05-23T07:04:05;102336.28;;;13.09;76.07
72061;BME280;59925;52.136;5.420;2023-05-23T07:06:31;102337.63;;;13.07;76.30
72061;BME280;59925;52.136;5.420;2023-05-23T07:08:58;102341.41;;;13.11;76.56
72061;BME280;59925;52.136;5.420;2023-05-23T07:11:24;102350.63;;;13.15;76.64
72061;BME280;59925;52.136;5.420;2023-05-23T07:13:51;102349.50;;;13.11;76.78
72061;BME280;59925;52.136;5.420;2023-05-23T07:16:18;102356.50;;;13.12;77.12
72061;BME280;59925;52.136;5.420;2023-05-23T07:18:45;102357.66;;;13.16;77.05
72061;BME280;59925;52.136;5.420;2023-05-23T07:21:11;102359.28;;;13.17;77.28
72061;BME280;59925;52.136;5.420;2023-05-23T07:23:39;102361.72;;;13.18;76.92
72061;BME280;59925;52.136;5.420;2023-05-23T07:26:06;102365.41;;;13.12;75.58
72061;BME280;59925;52.136;5.420;2023-05-23T07:28:35;102357.38;;;13.17;75.56
72061;BME280;59925;52.136;5.420;2023-05-23T07:31:02;102369.13;;;13.28;74.68
72061;BME280;59925;52.136;5.420;2023-05-23T07:33:29;102362.31;;;13.43;73.89
72061;BME280;59925;52.136;5.420;2023-05-23T07:35:56;102368.31;;;13.50;72.43
72061;BME280;59925;52.136;5.420;2023-05-23T07:38:22;102367.13;;;13.63;71.99
72061;BME280;59925;52.136;5.420;2023-05-23T07:40:48;102359.81;;;13.58;71.04
72061;BME280;59925;52.136;5.420;2023-05-23T07:43:28;102367.25;;;13.51;71.20
72061;BME280;59925;52.136;5.420;2023-05-23T07:45:54;102369.22;;;13.56;71.42
72061;BME280;59925;52.136;5.420;2023-05-23T07:48:21;102375.91;;;13.53;70.86
72061;BME280;59925;52.136;5.420;2023-05-23T07:50:47;102377.59;;;13.59;70.94
72061;BME280;59925;52.136;5.420;2023-05-23T07:53:14;102371.81;;;13.73;70.20
72061;BME280;59925;52.136;5.420;2023-05-23T07:55:40;102376.84;;;13.91;69.78
72061;BME280;59925;52.136;5.420;2023-05-23T07:58:07;102372.09;;;13.99;69.23
72061;BME280;59925;52.136;5.420;2023-05-23T08:00:33;102380.25;;;14.09;68.59
72061;BME280;59925;52.136;5.420;2023-05-23T08:03:00;102385.19;;;14.17;68.05
72061;BME280;59925;52.136;5.420;2023-05-23T08:05:26;102380.31;;;14.14;67.58
72061;BME280;59925;52.136;5.420;2023-05-23T08:07:53;102381.41;;;14.13;67.54
72061;BME280;59925;52.136;5.420;2023-05-23T08:10:20;102388.22;;;14.21;67.54
72061;BME280;59925;52.136;5.420;2023-05-23T08:12:46;102382.59;;;14.28;67.77
72061;BME280;59925;52.136;5.420;2023-05-23T08:15:13;102394.38;;;14.49;67.43
72061;BME280;59925;52.136;5.420;2023-05-23T08:17:40;102387.59;;;14.46;66.89
72061;BME280;59925;52.136;5.420;2023-05-23T08:20:06;102387.66;;;14.51;66.62
72061;BME280;59925;52.136;5.420;2023-05-23T08:22:34;102390.34;;;14.51;66.25
72061;BME280;59925;52.136;5.420;2023-05-23T08:25:01;102397.59;;;14.51;66.33
72061;BME280;59925;52.136;5.420;2023-05-23T08:27:28;102399.16;;;14.41;66.41
72061;BME280;59925;52.136;5.420;2023-05-23T08:29:55;102402.94;;;14.40;66.68
72061;BME280;59925;52.136;5.420;2023-05-23T08:32:22;102404.72;;;14.62;66.68
72061;BME280;59925;52.136;5.420;2023-05-23T08:34:48;102405.69;;;14.83;66.76
72061;BME280;59925;52.136;5.420;2023-05-23T08:37:15;102405.75;;;14.89;65.42
72061;BME280;59925;52.136;5.420;2023-05-23T08:39:42;102407.59;;;14.83;64.98
72061;BME280;59925;52.136;5.420;2023-05-23T08:42:08;102412.94;;;14.73;64.28
72061;BME280;59925;52.136;5.420;2023-05-23T08:44:35;102416.44;;;14.73;64.77
72061;BME280;59925;52.136;5.420;2023-05-23T08:47:03;102422.66;;;14.74;65.17
72061;BME280;59925;52.136;5.420;2023-05-23T08:49:33;102414.56;;;14.74;64.54
72061;BME280;59925;52.136;5.420;2023-05-23T08:52:02;102425.94;;;14.81;64.47
72061;BME280;59925;52.136;5.420;2023-05-23T08:54:29;102427.44;;;15.04;64.30
72061;BME280;59925;52.136;5.420;2023-05-23T08:56:56;102427.59;;;15.30;63.80
72061;BME280;59925;52.136;5.420;2023-05-23T08:59:22;102433.56;;;15.32;63.21
72061;BME280;59925;52.136;5.420;2023-05-23T09:01:50;102430.81;;;15.22;63.41
72061;BME280;59925;52.136;5.420;2023-05-23T09:04:17;102435.94;;;15.23;63.52
72061;BME280;59925;52.136;5.420;2023-05-23T09:06:43;102437.78;;;15.17;62.82
72061;BME280;59925;52.136;5.420;2023-05-23T09:09:10;102432.72;;;15.26;63.36
72061;BME280;59925;52.136;5.420;2023-05-23T09:11:36;102439.56;;;15.50;62.98
72061;BME280;59925;52.136;5.420;2023-05-23T09:14:03;102436.13;;;15.65;61.67
72061;BME280;59925;52.136;5.420;2023-05-23T09:16:33;102431.13;;;15.99;60.16
72061;BME280;59925;52.136;5.420;2023-05-23T09:19:09;102433.59;;;16.16;59.34
72061;BME280;59925;52.136;5.420;2023-05-23T09:21:36;102445.78;;;16.34;59.09
72061;BME280;59925;52.136;5.420;2023-05-23T09:24:04;102451.19;;;16.34;58.83
72061;BME280;59925;52.136;5.420;2023-05-23T09:26:30;102464.47;;;16.31;58.56
72061;BME280;59925;52.136;5.420;2023-05-23T09:28:57;102456.63;;;16.76;59.25
72061;BME280;59925;52.136;5.420;2023-05-23T09:31:26;102447.69;;;16.96;57.31
72061;BME280;59925;52.136;5.420;2023-05-23T09:33:57;102452.81;;;16.82;56.92
72061;BME280;59925;52.136;5.420;2023-05-23T09:36:26;102464.19;;;16.58;57.57
72061;BME280;59925;52.136;5.420;2023-05-23T09:38:54;102453.38;;;16.37;57.81
72061;BME280;59925;52.136;5.420;2023-05-23T09:41:21;102465.28;;;16.47;58.20
72061;BME280;59925;52.136;5.420;2023-05-23T09:43:49;102456.63;;;16.60;56.90
72061;BME280;59925;52.136;5.420;2023-05-23T09:46:18;102447.69;;;16.70;56.76
72061;BME280;59925;52.136;5.420;2023-05-23T09:48:54;102455.81;;;16.70;56.78
72061;BME280;59925;52.136;5.420;2023-05-23T09:51:22;102446.03;;;16.90;56.72
72061;BME280;59925;52.136;5.420;2023-05-23T09:53:49;102456.56;;;17.22;55.79
72061;BME280;59925;52.136;5.420;2023-05-23T09:56:16;102460.06;;;17.28;54.84
72061;BME280;59925;52.136;5.420;2023-05-23T09:58:48;102456.97;;;17.66;55.12
72061;BME280;59925;52.136;5.420;2023-05-23T10:01:15;102465.81;;;17.87;55.25
72061;BME280;59925;52.136;5.420;2023-05-23T10:03:48;102469.16;;;17.68;53.70
72061;BME280;59925;52.136;5.420;2023-05-23T10:06:36;102475.03;;;17.20;53.80
72061;BME280;59925;52.136;5.420;2023-05-23T10:09:05;102476.06;;;17.24;54.62
72061;BME280;59925;52.136;5.420;2023-05-23T10:14:08;102469.31;;;17.92;52.61
72061;BME280;59925;52.136;5.420;2023-05-23T10:16:52;102465.13;;;18.16;51.52
72061;BME280;59925;52.136;5.420;2023-05-23T10:19:37;102464.31;;;18.15;52.44
72061;BME280;59925;52.136;5.420;2023-05-23T10:22:10;102470.22;;;17.72;51.90
72061;BME280;59925;52.136;5.420;2023-05-23T10:24:38;102479.75;;;17.65;53.82
72061;BME280;59925;52.136;5.420;2023-05-23T10:27:06;102486.84;;;17.55;53.83
72061;BME280;59925;52.136;5.420;2023-05-23T10:29:33;102487.69;;;17.40;54.59
72061;BME280;59925;52.136;5.420;2023-05-23T10:32:02;102483.00;;;17.67;55.36
72061;BME280;59925;52.136;5.420;2023-05-23T10:37:47;102479.38;;;17.87;52.91
72061;BME280;59925;52.136;5.420;2023-05-23T10:43:02;102486.03;;;18.15;52.33
72061;BME280;59925;52.136;5.420;2023-05-23T10:45:29;102486.38;;;18.03;53.51
72061;BME280;59925;52.136;5.420;2023-05-23T10:47:58;102483.06;;;18.17;52.50
72061;BME280;59925;52.136;5.420;2023-05-23T10:50:33;102489.06;;;18.08;52.51
72061;BME280;59925;52.136;5.420;2023-05-23T10:53:01;102487.41;;;18.07;52.62
72061;BME280;59925;52.136;5.420;2023-05-23T10:55:33;102485.59;;;17.98;52.54
72061;BME280;59925;52.136;5.420;2023-05-23T10:58:10;102492.38;;;17.90;53.18
72061;BME280;59925;52.136;5.420;2023-05-23T11:00:37;102493.25;;;18.70;53.10
72061;BME280;59925;52.136;5.420;2023-05-23T11:03:05;102490.69;;;18.84;51.49
72061;BME280;59925;52.136;5.420;2023-05-23T11:05:35;102497.13;;;18.93;51.62
72061;BME280;59925;52.136;5.420;2023-05-23T11:08:13;102490.38;;;18.91;50.09
72061;BME280;59925;52.136;5.420;2023-05-23T11:10:52;102495.06;;;18.80;50.33
72061;BME280;59925;52.136;5.420;2023-05-23T11:13:20;102495.19;;;18.99;48.21
72061;BME280;59925;52.136;5.420;2023-05-23T11:15:49;102491.56;;;19.09;48.03
72061;BME280;59925;52.136;5.420;2023-05-23T11:18:28;102490.00;;;19.75;49.08
72061;BME280;59925;52.136;5.420;2023-05-23T11:20:57;102487.28;;;19.75;47.50
72061;BME280;59925;52.136;5.420;2023-05-23T11:23:38;102484.38;;;19.23;47.67
72061;BME280;59925;52.136;5.420;2023-05-23T11:26:29;102496.03;;;18.65;47.94
72061;BME280;59925;52.136;5.420;2023-05-23T11:28:57;102486.94;;;18.40;48.83
72061;BME280;59925;52.136;5.420;2023-05-23T11:31:24;102490.78;;;18.39;48.18
72061;BME280;59925;52.136;5.420;2023-05-23T11:33:50;102499.28;;;18.22;48.54
72061;BME280;59925;52.136;5.420;2023-05-23T11:36:17;102491.88;;;18.38;49.55
72061;BME280;59925;52.136;5.420;2023-05-23T11:38:44;102495.75;;;18.61;49.92
72061;BME280;59925;52.136;5.420;2023-05-23T11:41:11;102495.97;;;18.70;49.30
72061;BME280;59925;52.136;5.420;2023-05-23T11:43:48;102499.75;;;18.34;49.05
72061;BME280;59925;52.136;5.420;2023-05-23T11:46:15;102504.84;;;18.41;50.55
72061;BME280;59925;52.136;5.420;2023-05-23T11:48:45;102499.75;;;18.69;48.45
72061;BME280;59925;52.136;5.420;2023-05-23T11:51:13;102494.09;;;19.00;49.28
72061;BME280;59925;52.136;5.420;2023-05-23T11:53:40;102504.16;;;18.99;47.34
72061;BME280;59925;52.136;5.420;2023-05-23T11:56:07;102504.75;;;18.57;48.02
72061;BME280;59925;52.136;5.420;2023-05-23T11:58:36;102505.69;;;18.42;48.83
72061;BME280;59925;52.136;5.420;2023-05-23T12:01:04;102503.38;;;18.59;48.28
72061;BME280;59925;52.136;5.420;2023-05-23T12:03:33;102509.50;;;18.75;48.20
72061;BME280;59925;52.136;5.420;2023-05-23T12:06:00;102503.06;;;19.01;48.14
72061;BME280;59925;52.136;5.420;2023-05-23T12:08:29;102507.75;;;18.90;48.28
72061;BME280;59925;52.136;5.420;2023-05-23T12:10:57;102514.75;;;19.01;47.80
72061;BME280;59925;52.136;5.420;2023-05-23T12:13:28;102515.31;;;18.93;46.34
72061;BME280;59925;52.136;5.420;2023-05-23T12:15:56;102503.22;;;19.14;46.53
72061;BME280;59925;52.136;5.420;2023-05-23T12:18:27;102503.72;;;19.17;45.41
72061;BME280;59925;52.136;5.420;2023-05-23T12:20:54;102509.09;;;18.97;45.38
72061;BME280;59925;52.136;5.420;2023-05-23T12:23:26;102517.22;;;18.63;46.18
72061;BME280;59925;52.136;5.420;2023-05-23T12:25:54;102516.50;;;18.81;47.83
72061;BME280;59925;52.136;5.420;2023-05-23T12:28:34;102517.09;;;19.37;47.01
72061;BME280;59925;52.136;5.420;2023-05-23T12:31:20;102513.06;;;19.35;47.54
72061;BME280;59925;52.136;5.420;2023-05-23T12:33:48;102513.84;;;19.11;46.75
72061;BME280;59925;52.136;5.420;2023-05-23T12:36:24;102509.41;;;18.86;46.90
72061;BME280;59925;52.136;5.420;2023-05-23T12:39:01;102516.59;;;19.06;46.93
72061;BME280;59925;52.136;5.420;2023-05-23T12:41:28;102523.78;;;19.50;47.15
72061;BME280;59925;52.136;5.420;2023-05-23T12:43:55;102521.56;;;20.20;45.40
72061;BME280;59925;52.136;5.420;2023-05-23T12:46:23;102523.59;;;20.28;44.94
72061;BME280;59925;52.136;5.420;2023-05-23T12:48:50;102527.34;;;19.70;44.84
72061;BME280;59925;52.136;5.420;2023-05-23T12:51:18;102534.53;;;19.60;45.55
72061;BME280;59925;52.136;5.420;2023-05-23T12:53:45;102528.88;;;19.27;45.25
72061;BME280;59925;52.136;5.420;2023-05-23T12:56:11;102532.91;;;18.71;46.68
72061;BME280;59925;52.136;5.420;2023-05-23T12:58:38;102533.91;;;18.80;47.09
72061;BME280;59925;52.136;5.420;2023-05-23T13:01:04;102533.22;;;19.28;47.67
72061;BME280;59925;52.136;5.420;2023-05-23T13:03:31;102526.75;;;19.49;46.39
72061;BME280;59925;52.136;5.420;2023-05-23T13:05:58;102525.50;;;19.11;45.85
72061;BME280;59925;52.136;5.420;2023-05-23T13:08:25;102526.34;;;19.12;46.03
72061;BME280;59925;52.136;5.420;2023-05-23T13:10:52;102522.75;;;19.17;45.51
72061;BME280;59925;52.136;5.420;2023-05-23T13:13:19;102532.97;;;19.30;45.43